createdAt,value
2023-03-21T00:02:36.282Z,11.80
2023-03-21T00:06:38.026Z,12.80
2023-03-21T00:10:41.208Z,12.90
2023-03-21T00:14:42.826Z,13.20
2023-03-21T00:18:45.942Z,13.40
2023-03-21T00:22:47.234Z,13.10
2023-03-21T00:26:50.089Z,13.40
2023-03-21T00:30:51.251Z,13.50
2023-03-21T00:35:11.856Z,13.50
2023-03-21T00:38:55.629Z,13.20
2023-03-21T00:42:56.799Z,13.20
2023-03-21T00:47:07.167Z,13.10
2023-03-21T00:51:04.774Z,12.90
2023-03-21T00:55:06.999Z,12.80
2023-03-21T00:59:08.314Z,12.80
2023-03-21T01:03:23.777Z,12.80
2023-03-21T01:07:15.039Z,12.50
2023-03-21T01:11:18.704Z,12.00
2023-03-21T01:15:20.038Z,12.10
2023-03-21T01:19:32.920Z,12.00
2023-03-21T01:23:28.970Z,12.20
2023-03-21T01:27:30.090Z,12.50
2023-03-21T01:31:31.493Z,12.90
2023-03-21T01:35:40.924Z,13.00
2023-03-21T01:39:36.074Z,12.40
2023-03-21T01:43:37.336Z,12.90
2023-03-21T01:47:38.520Z,13.00
2023-03-21T01:51:49.493Z,12.90
2023-03-21T01:55:50.711Z,12.90
2023-03-21T01:59:54.116Z,13.00
2023-03-21T02:03:55.248Z,13.10
2023-03-21T02:07:56.507Z,13.00
2023-03-21T02:11:57.866Z,13.10
2023-03-21T02:16:14.820Z,13.10
2023-03-21T02:20:42.469Z,12.70
2023-03-21T02:24:59.528Z,12.90
2023-03-21T02:28:57.156Z,12.90
2023-03-21T02:33:29.363Z,12.80
2023-03-21T02:37:38.751Z,13.00
2023-03-21T02:41:52.544Z,12.90
2023-03-21T02:46:00.689Z,12.90
2023-03-21T02:50:05.519Z,12.70
2023-03-21T02:54:29.895Z,12.50
2023-03-21T02:58:17.096Z,12.30
2023-03-21T03:02:22.391Z,12.10
2023-03-21T03:06:39.241Z,12.10
2023-03-21T03:10:44.092Z,12.00
2023-03-21T03:15:11.005Z,11.80
2023-03-21T03:19:16.077Z,11.50
2023-03-21T03:23:24.064Z,11.50
2023-03-21T03:27:31.922Z,11.50
2023-03-21T03:31:37.540Z,11.30
2023-03-21T03:35:38.646Z,11.30
2023-03-21T03:39:43.660Z,11.30
2023-03-21T03:43:48.622Z,11.20
2023-03-21T03:48:17.597Z,11.40
2023-03-21T03:52:25.860Z,11.50
2023-03-21T03:56:28.122Z,11.70
2023-03-21T04:00:32.813Z,11.70
2023-03-21T04:04:34.553Z,11.50
2023-03-21T04:08:37.116Z,11.60
2023-03-21T04:12:38.277Z,12.00
2023-03-21T04:16:39.472Z,12.10
2023-03-21T04:20:40.827Z,12.00
2023-03-21T04:24:42.290Z,11.80
2023-03-21T04:28:43.508Z,11.90
2023-03-21T04:32:44.922Z,12.00
2023-03-21T04:36:46.304Z,12.10
2023-03-21T04:40:47.506Z,12.20
2023-03-21T04:44:48.966Z,12.20
2023-03-21T04:48:50.048Z,12.30
2023-03-21T04:52:51.113Z,12.40
2023-03-21T04:56:52.884Z,12.40
2023-03-21T05:00:54.106Z,12.30
2023-03-21T05:04:57.010Z,12.30
2023-03-21T05:09:03.735Z,12.20
2023-03-21T05:13:05.053Z,12.00
2023-03-21T05:17:06.163Z,12.00
2023-03-21T05:21:09.313Z,11.90
2023-03-21T05:25:11.653Z,12.00
2023-03-21T05:29:12.855Z,11.50
2023-03-21T05:33:13.992Z,11.40
2023-03-21T05:37:15.119Z,11.40
2023-03-21T05:41:19.114Z,10.10
2023-03-21T05:45:20.248Z,10.60
2023-03-21T05:49:22.252Z,10.30
2023-03-21T05:53:23.445Z,10.90
2023-03-21T05:57:27.537Z,11.60
2023-03-21T06:01:28.553Z,11.70
2023-03-21T06:05:29.938Z,12.00
2023-03-21T06:09:31.260Z,11.00
2023-03-21T06:13:32.573Z,11.00
2023-03-21T06:17:33.854Z,11.60
2023-03-21T06:21:35.070Z,11.60
2023-03-21T06:25:36.661Z,12.20
2023-03-21T06:29:38.199Z,12.50
2023-03-21T06:33:39.450Z,11.90
2023-03-21T06:37:40.576Z,12.60
2023-03-21T06:41:41.582Z,13.00
2023-03-21T06:45:43.290Z,13.00
2023-03-21T06:49:44.800Z,13.50
2023-03-21T06:53:46.133Z,14.10
2023-03-21T06:57:47.293Z,14.40
2023-03-21T07:01:48.307Z,15.00
2023-03-21T07:05:49.467Z,15.00
2023-03-21T07:09:51.689Z,15.10
2023-03-21T07:13:53.046Z,15.00
2023-03-21T07:17:54.314Z,14.90
2023-03-21T07:21:55.698Z,14.90
2023-03-21T07:25:56.819Z,15.10
2023-03-21T07:29:58.073Z,15.90
2023-03-21T07:33:59.281Z,15.70
2023-03-21T07:38:00.519Z,15.60
2023-03-21T07:42:02.076Z,16.30
2023-03-21T07:46:03.759Z,16.30
2023-03-21T07:50:05.824Z,16.30
2023-03-21T07:54:06.820Z,15.80
2023-03-21T07:58:07.904Z,15.20
2023-03-21T08:02:16.595Z,15.00
2023-03-21T08:06:17.773Z,15.40
2023-03-21T08:10:19.076Z,15.40
2023-03-21T08:14:20.219Z,15.80
2023-03-21T08:18:21.200Z,15.70
2023-03-21T08:22:22.200Z,15.50
2023-03-21T08:26:25.123Z,15.10
2023-03-21T08:30:27.996Z,16.00
2023-03-21T08:34:28.970Z,15.00
2023-03-21T08:38:31.977Z,14.70
2023-03-21T08:42:33.514Z,14.50
2023-03-21T08:46:34.795Z,15.30
2023-03-21T08:50:35.900Z,14.80
2023-03-21T08:54:37.604Z,15.20
2023-03-21T08:58:38.616Z,14.50
2023-03-21T09:02:41.052Z,14.30
2023-03-21T09:06:43.941Z,14.40
2023-03-21T09:10:44.902Z,14.00
2023-03-21T09:14:45.954Z,14.20
2023-03-21T09:18:49.167Z,14.70
2023-03-21T09:22:54.045Z,14.40
2023-03-21T09:26:55.439Z,15.20
2023-03-21T09:30:59.808Z,15.10
2023-03-21T09:35:00.804Z,14.90
2023-03-21T09:39:03.527Z,15.30
2023-03-21T09:43:14.964Z,14.70
2023-03-21T09:47:21.067Z,14.50
2023-03-21T09:51:24.295Z,15.20
2023-03-21T09:55:33.642Z,14.70
2023-03-21T09:59:37.458Z,14.80
2023-03-21T10:03:38.512Z,15.00
2023-03-21T10:07:44.037Z,15.20
2023-03-21T10:11:49.509Z,15.00
2023-03-21T10:15:51.182Z,16.00
2023-03-21T10:20:20.705Z,15.20
2023-03-21T10:24:25.522Z,15.80
2023-03-21T10:28:34.505Z,16.70
2023-03-21T10:32:35.147Z,17.00
2023-03-21T10:36:37.595Z,16.50
2023-03-21T10:40:38.746Z,16.70
2023-03-21T10:44:39.951Z,16.70
2023-03-21T10:48:44.462Z,16.20
2023-03-21T10:52:49.388Z,15.40
2023-03-21T10:56:56.921Z,15.10
2023-03-21T11:01:02.108Z,14.00
2023-03-21T11:05:09.723Z,14.20
2023-03-21T11:09:16.620Z,13.80
2023-03-21T11:13:21.574Z,13.80
2023-03-21T11:17:31.537Z,13.80
2023-03-21T11:21:37.118Z,13.70
2023-03-21T11:25:41.786Z,13.50
2023-03-21T11:29:48.650Z,13.50
2023-03-21T11:33:59.226Z,13.00
2023-03-21T11:38:00.182Z,12.50
2023-03-21T11:42:01.357Z,12.50
2023-03-21T11:46:11.438Z,12.50
2023-03-21T11:50:18.556Z,12.30
2023-03-21T11:54:55.270Z,12.50
2023-03-21T11:59:24.172Z,13.00
2023-03-21T12:03:41.483Z,12.60
2023-03-21T12:08:01.230Z,12.70
2023-03-21T12:12:15.119Z,13.00
2023-03-21T12:16:29.416Z,13.10
2023-03-21T12:20:43.552Z,13.10
2023-03-21T12:24:56.033Z,12.50
2023-03-21T12:29:03.598Z,12.90
2023-03-21T12:33:37.295Z,13.20
2023-03-21T12:38:16.619Z,13.20
2023-03-21T12:42:37.920Z,13.60
2023-03-21T12:47:16.206Z,13.40
2023-03-21T12:51:24.456Z,13.30
2023-03-21T12:55:31.937Z,13.10
2023-03-21T12:59:39.624Z,13.30
2023-03-21T13:03:44.675Z,12.80
2023-03-21T13:07:49.510Z,12.20
2023-03-21T13:11:54.534Z,12.10
2023-03-21T13:16:11.594Z,12.50
2023-03-21T13:20:19.704Z,11.80
2023-03-21T13:24:39.887Z,12.50
2023-03-21T13:28:41.859Z,12.10
2023-03-21T13:32:45.952Z,12.10
2023-03-21T13:36:48.692Z,11.80
2023-03-21T13:40:52.986Z,12.50
2023-03-21T13:44:57.437Z,12.50
2023-03-21T13:49:01.210Z,12.70
2023-03-21T13:53:15.315Z,12.50
2023-03-21T13:57:30.034Z,11.80
2023-03-21T14:02:00.479Z,11.40
2023-03-21T14:06:01.916Z,11.20
2023-03-21T14:10:18.658Z,11.70
2023-03-21T14:14:23.260Z,11.70
2023-03-21T14:18:47.611Z,12.10
2023-03-21T14:22:30.039Z,11.70
2023-03-21T14:26:35.221Z,11.40
2023-03-21T14:30:38.873Z,11.10
2023-03-21T14:34:42.049Z,11.50
2023-03-21T14:38:43.659Z,12.10
2023-03-21T14:42:48.370Z,11.90
2023-03-21T14:46:49.894Z,11.90
2023-03-21T14:50:53.924Z,11.80
2023-03-21T14:54:56.016Z,11.70
2023-03-21T14:58:57.823Z,12.00
2023-03-21T15:03:00.158Z,11.70
2023-03-21T15:07:04.276Z,12.20
2023-03-21T15:11:08.826Z,12.30
2023-03-21T15:15:13.877Z,11.90
2023-03-21T15:19:18.935Z,11.50
2023-03-21T15:23:35.497Z,12.30
2023-03-21T15:27:41.630Z,11.40
2023-03-21T15:31:44.040Z,11.10
2023-03-21T15:35:55.004Z,11.70
2023-03-21T15:39:59.857Z,11.70
2023-03-21T15:44:10.720Z,11.80
2023-03-21T15:48:14.262Z,12.10
2023-03-21T15:52:16.644Z,12.10
2023-03-21T15:56:19.803Z,12.30
2023-03-21T16:00:42.338Z,12.60
2023-03-21T16:05:02.642Z,11.90
2023-03-21T16:09:20.823Z,13.00
2023-03-21T16:13:21.901Z,13.10
2023-03-21T16:17:29.615Z,12.90
2023-03-21T16:21:31.449Z,12.70
2023-03-21T16:25:32.748Z,11.70
2023-03-21T16:29:34.049Z,12.00
2023-03-21T16:33:35.186Z,12.10
2023-03-21T16:37:36.486Z,12.40
2023-03-21T16:41:37.636Z,12.40
2023-03-21T16:45:38.870Z,13.10
2023-03-21T16:49:39.880Z,12.90
2023-03-21T16:53:41.205Z,12.20
2023-03-21T16:57:42.856Z,12.40
2023-03-21T17:01:45.381Z,12.10
2023-03-21T17:05:46.804Z,12.00
2023-03-21T17:09:47.878Z,12.30
2023-03-21T17:13:50.530Z,12.00
2023-03-21T17:17:53.558Z,11.90
2023-03-21T17:21:54.654Z,12.30
2023-03-21T17:25:55.831Z,11.90
2023-03-21T17:29:57.619Z,12.00
2023-03-21T17:33:59.078Z,12.00
2023-03-21T17:38:00.316Z,12.20
2023-03-21T17:42:01.349Z,11.60
2023-03-21T17:46:02.593Z,12.80
2023-03-21T17:50:04.597Z,11.10
2023-03-21T17:54:06.232Z,11.10
2023-03-21T17:58:07.599Z,12.30
2023-03-21T18:02:08.741Z,12.30
2023-03-21T18:06:19.039Z,12.10
2023-03-21T18:10:23.599Z,12.60
2023-03-21T18:14:28.761Z,12.00
2023-03-21T18:18:27.971Z,10.90
2023-03-21T18:22:29.179Z,12.00
2023-03-21T18:26:31.265Z,12.30
2023-03-21T18:30:53.056Z,11.60
2023-03-21T18:34:38.074Z,11.10
2023-03-21T18:38:39.741Z,10.80
2023-03-21T18:43:08.716Z,10.90
2023-03-21T18:46:46.304Z,11.00
2023-03-21T18:50:47.374Z,10.80
2023-03-21T18:54:49.031Z,11.80
2023-03-21T18:58:50.418Z,11.90
2023-03-21T19:02:58.230Z,10.50
2023-03-21T19:06:56.892Z,10.00
2023-03-21T19:11:00.136Z,11.20
2023-03-21T19:15:01.029Z,11.60
2023-03-21T19:19:03.085Z,11.70
2023-03-21T19:23:05.616Z,11.90
2023-03-21T19:27:07.144Z,12.10
2023-03-21T19:31:08.788Z,12.00
2023-03-21T19:35:10.405Z,12.30
2023-03-21T19:39:12.969Z,11.80
2023-03-21T19:43:32.376Z,11.80
2023-03-21T19:47:20.673Z,12.30
2023-03-21T19:51:29.099Z,11.80
2023-03-21T19:55:26.701Z,12.70
2023-03-21T19:59:27.889Z,13.30
2023-03-21T20:03:28.903Z,13.00
2023-03-21T20:07:31.991Z,13.00
2023-03-21T20:11:33.585Z,13.00
2023-03-21T20:15:44.919Z,13.50
2023-03-21T20:19:37.788Z,13.50
2023-03-21T20:23:38.761Z,12.80
2023-03-21T20:27:41.650Z,13.10
2023-03-21T20:31:42.953Z,13.60
2023-03-21T20:36:32.162Z,13.50
2023-03-21T20:39:48.539Z,13.80
2023-03-21T20:47:52.708Z,13.50
2023-03-21T20:55:59.695Z,13.60
2023-03-21T21:00:01.213Z,13.80
2023-03-21T21:04:02.648Z,12.60
2023-03-21T21:08:04.033Z,12.40
2023-03-21T21:12:07.772Z,13.40
2023-03-21T21:16:09.740Z,12.10
2023-03-21T21:20:17.141Z,13.10
2023-03-21T21:24:18.701Z,13.10
2023-03-21T21:28:22.689Z,11.70
2023-03-21T21:32:24.195Z,13.20
2023-03-21T21:36:25.482Z,13.00
2023-03-21T21:40:26.703Z,13.20
2023-03-21T21:44:27.880Z,13.40
2023-03-21T21:48:28.907Z,13.20
2023-03-21T21:52:30.243Z,13.20
2023-03-21T21:56:36.374Z,13.30
2023-03-21T22:00:37.614Z,13.10
2023-03-21T22:08:44.472Z,12.80
2023-03-21T22:12:45.720Z,12.60
2023-03-21T22:16:46.921Z,12.50
2023-03-21T22:20:48.114Z,12.30
2023-03-21T22:24:49.869Z,12.40
2023-03-21T22:28:50.906Z,12.40
2023-03-21T22:33:08.100Z,11.90
2023-03-21T22:36:56.371Z,11.90
2023-03-21T22:40:59.634Z,11.90
2023-03-21T22:45:01.037Z,12.40
2023-03-21T22:49:03.494Z,12.50
2023-03-21T22:53:04.627Z,12.20
2023-03-21T22:57:06.352Z,12.00
2023-03-21T23:01:07.638Z,10.90
2023-03-21T23:05:10.110Z,12.10
2023-03-21T23:09:12.476Z,12.00
2023-03-21T23:13:13.621Z,12.00
2023-03-21T23:17:15.875Z,12.00
2023-03-21T23:21:18.172Z,12.00
2023-03-21T23:25:19.958Z,11.20
2023-03-21T23:29:21.024Z,11.40
2023-03-21T23:33:22.266Z,11.70
2023-03-21T23:37:24.481Z,10.70
2023-03-21T23:41:25.977Z,11.00
2023-03-21T23:45:26.924Z,11.30
2023-03-21T23:49:28.549Z,12.10
2023-03-21T23:53:29.959Z,11.30
2023-03-21T23:57:31.403Z,11.80
